sensor_id;sensor_type;location;lat;lon;timestamp;P1;durP1;ratioP1;P2;durP2;ratioP2
23680;SDS011;62915;50.832;4.462;2023-11-21T08:05:57;48.30;;;26.73;;
23680;SDS011;62915;50.832;4.462;2023-11-21T08:08:24;49.17;;;28.10;;
23680;SDS011;62915;50.832;4.462;2023-11-21T08:10:50;43.08;;;27.00;;
23680;SDS011;62915;50.832;4.462;2023-11-21T08:13:23;45.58;;;28.60;;
23680;SDS011;62915;50.832;4.462;2023-11-21T08:15:57;49.85;;;29.48;;
23680;SDS011;62915;50.832;4.462;2023-11-21T08:18:30;47.08;;;27.58;;
23680;SDS011;62915;50.832;4.462;2023-11-21T08:20:56;50.72;;;28.70;;
23680;SDS011;62915;50.832;4.462;2023-11-21T08:23:22;49.42;;;29.30;;
23680;SDS011;62915;50.832;4.462;2023-11-21T08:25:54;57.92;;;30.10;;
23680;SDS011;62915;50.832;4.462;2023-11-21T08:28:20;47.13;;;28.10;;
23680;SDS011;62915;50.832;4.462;2023-11-21T08:30:51;53.78;;;30.52;;
23680;SDS011;62915;50.832;4.462;2023-11-21T08:33:17;51.33;;;29.67;;
23680;SDS011;62915;50.832;4.462;2023-11-21T08:35:44;61.00;;;31.13;;
23680;SDS011;62915;50.832;4.462;2023-11-21T08:38:11;52.17;;;29.13;;
23680;SDS011;62915;50.832;4.462;2023-11-21T08:40:37;52.92;;;31.15;;
23680;SDS011;62915;50.832;4.462;2023-11-21T08:43:03;58.05;;;30.15;;
23680;SDS011;62915;50.832;4.462;2023-11-21T08:45:33;55.88;;;30.70;;
23680;SDS011;62915;50.832;4.462;2023-11-21T08:47:59;62.17;;;32.20;;
23680;SDS011;62915;50.832;4.462;2023-11-21T08:50:25;60.15;;;31.38;;
23680;SDS011;62915;50.832;4.462;2023-11-21T08:52:51;61.70;;;32.65;;
23680;SDS011;62915;50.832;4.462;2023-11-21T08:55:17;59.47;;;31.75;;
23680;SDS011;62915;50.832;4.462;2023-11-21T08:57:45;66.15;;;32.42;;
23680;SDS011;62915;50.832;4.462;2023-11-21T09:00:11;70.32;;;33.95;;
23680;SDS011;62915;50.832;4.462;2023-11-21T09:02:40;69.97;;;32.42;;
23680;SDS011;62915;50.832;4.462;2023-11-21T09:05:10;68.07;;;32.50;;
23680;SDS011;62915;50.832;4.462;2023-11-21T09:07:37;63.80;;;33.13;;
23680;SDS011;62915;50.832;4.462;2023-11-21T09:10:04;62.22;;;32.50;;
23680;SDS011;62915;50.832;4.462;2023-11-21T09:12:36;64.15;;;31.50;;
23680;SDS011;62915;50.832;4.462;2023-11-21T09:15:05;65.13;;;32.65;;
23680;SDS011;62915;50.832;4.462;2023-11-21T09:17:32;67.07;;;31.77;;
23680;SDS011;62915;50.832;4.462;2023-11-21T09:19:59;70.85;;;30.13;;
23680;SDS011;62915;50.832;4.462;2023-11-21T09:22:26;67.03;;;30.25;;
23680;SDS011;62915;50.832;4.462;2023-11-21T09:24:55;68.65;;;29.17;;
23680;SDS011;62915;50.832;4.462;2023-11-21T09:27:22;80.07;;;28.25;;
23680;SDS011;62915;50.832;4.462;2023-11-21T09:29:49;79.40;;;30.13;;
23680;SDS011;62915;50.832;4.462;2023-11-21T09:32:14;75.40;;;29.83;;
23680;SDS011;62915;50.832;4.462;2023-11-21T09:34:41;80.57;;;31.23;;
23680;SDS011;62915;50.832;4.462;2023-11-21T09:37:07;83.35;;;31.58;;
23680;SDS011;62915;50.832;4.462;2023-11-21T09:39:33;74.35;;;28.73;;
23680;SDS011;62915;50.832;4.462;2023-11-21T09:44:54;79.47;;;27.38;;
23680;SDS011;62915;50.832;4.462;2023-11-21T09:47:24;62.28;;;26.02;;
23680;SDS011;62915;50.832;4.462;2023-11-21T09:49:49;58.42;;;26.15;;
23680;SDS011;62915;50.832;4.462;2023-11-21T09:52:24;62.83;;;25.50;;
23680;SDS011;62915;50.832;4.462;2023-11-21T09:54:52;66.63;;;26.58;;
23680;SDS011;62915;50.832;4.462;2023-11-21T09:57:21;57.80;;;25.00;;
23680;SDS011;62915;50.832;4.462;2023-11-21T09:59:52;69.57;;;27.33;;
23680;SDS011;62915;50.832;4.462;2023-11-21T10:02:24;62.30;;;26.83;;
23680;SDS011;62915;50.832;4.462;2023-11-21T10:04:53;68.00;;;27.38;;
23680;SDS011;62915;50.832;4.462;2023-11-21T10:07:20;60.63;;;27.05;;
23680;SDS011;62915;50.832;4.462;2023-11-21T10:09:46;64.20;;;26.75;;
23680;SDS011;62915;50.832;4.462;2023-11-21T10:12:14;68.35;;;27.70;;
23680;SDS011;62915;50.832;4.462;2023-11-21T10:14:42;64.65;;;28.90;;
23680;SDS011;62915;50.832;4.462;2023-11-21T10:17:12;66.03;;;27.83;;
23680;SDS011;62915;50.832;4.462;2023-11-21T10:19:41;64.85;;;27.33;;
23680;SDS011;62915;50.832;4.462;2023-11-21T10:22:08;61.72;;;25.95;;
23680;SDS011;62915;50.832;4.462;2023-11-21T10:24:34;56.88;;;26.83;;
23680;SDS011;62915;50.832;4.462;2023-11-21T10:27:02;48.33;;;26.75;;
23680;SDS011;62915;50.832;4.462;2023-11-21T10:29:29;47.85;;;25.98;;
23680;SDS011;62915;50.832;4.462;2023-11-21T10:31:55;49.10;;;24.13;;
23680;SDS011;62915;50.832;4.462;2023-11-21T10:34:23;44.85;;;25.08;;
23680;SDS011;62915;50.832;4.462;2023-11-21T10:36:50;40.42;;;24.42;;
23680;SDS011;62915;50.832;4.462;2023-11-21T10:39:21;51.38;;;25.75;;
23680;SDS011;62915;50.832;4.462;2023-11-21T10:41:48;44.67;;;24.00;;
23680;SDS011;62915;50.832;4.462;2023-11-21T10:44:15;38.55;;;23.65;;
23680;SDS011;62915;50.832;4.462;2023-11-21T10:46:49;42.40;;;24.00;;
23680;SDS011;62915;50.832;4.462;2023-11-21T10:49:22;37.55;;;23.33;;
23680;SDS011;62915;50.832;4.462;2023-11-21T10:51:50;37.30;;;22.90;;
23680;SDS011;62915;50.832;4.462;2023-11-21T10:54:21;35.53;;;21.90;;
23680;SDS011;62915;50.832;4.462;2023-11-21T10:56:49;32.65;;;22.60;;
23680;SDS011;62915;50.832;4.462;2023-11-21T10:59:18;37.78;;;23.33;;
23680;SDS011;62915;50.832;4.462;2023-11-21T11:01:46;37.08;;;22.25;;
23680;SDS011;62915;50.832;4.462;2023-11-21T11:04:14;37.40;;;23.60;;
23680;SDS011;62915;50.832;4.462;2023-11-21T11:07:01;43.22;;;24.35;;
23680;SDS011;62915;50.832;4.462;2023-11-21T11:09:31;43.33;;;24.55;;
23680;SDS011;62915;50.832;4.462;2023-11-21T11:12:01;44.30;;;25.02;;
23680;SDS011;62915;50.832;4.462;2023-11-21T11:14:28;41.38;;;25.08;;
23680;SDS011;62915;50.832;4.462;2023-11-21T11:16:55;41.35;;;23.73;;
23680;SDS011;62915;50.832;4.462;2023-11-21T11:19:21;49.53;;;27.30;;
23680;SDS011;62915;50.832;4.462;2023-11-21T11:21:51;41.83;;;25.48;;
23680;SDS011;62915;50.832;4.462;2023-11-21T11:38:30;45.15;;;26.63;;
23680;SDS011;62915;50.832;4.462;2023-11-21T11:41:00;46.60;;;26.60;;
23680;SDS011;62915;50.832;4.462;2023-11-21T11:43:29;42.13;;;26.33;;
23680;SDS011;62915;50.832;4.462;2023-11-21T11:45:58;43.08;;;26.27;;
23680;SDS011;62915;50.832;4.462;2023-11-21T11:48:24;48.25;;;27.30;;
23680;SDS011;62915;50.832;4.462;2023-11-21T11:51:07;51.92;;;27.73;;
23680;SDS011;62915;50.832;4.462;2023-11-21T11:53:40;48.75;;;26.48;;
23680;SDS011;62915;50.832;4.462;2023-11-21T11:58:51;46.78;;;28.35;;
23680;SDS011;62915;50.832;4.462;2023-11-21T12:01:21;48.90;;;26.27;;
23680;SDS011;62915;50.832;4.462;2023-11-21T12:07:00;48.72;;;27.98;;
23680;SDS011;62915;50.832;4.462;2023-11-21T12:09:28;40.75;;;25.33;;
23680;SDS011;62915;50.832;4.462;2023-11-21T12:11:55;42.53;;;26.15;;
23680;SDS011;62915;50.832;4.462;2023-11-21T12:14:25;42.15;;;25.38;;
23680;SDS011;62915;50.832;4.462;2023-11-21T12:16:50;45.70;;;27.48;;
23680;SDS011;62915;50.832;4.462;2023-11-21T12:19:17;40.85;;;25.25;;
23680;SDS011;62915;50.832;4.462;2023-11-21T12:21:43;37.47;;;25.90;;
23680;SDS011;62915;50.832;4.462;2023-11-21T12:24:13;37.70;;;25.70;;
23680;SDS011;62915;50.832;4.462;2023-11-21T12:26:41;30.90;;;23.20;;
23680;SDS011;62915;50.832;4.462;2023-11-21T12:29:07;33.70;;;22.65;;
23680;SDS011;62915;50.832;4.462;2023-11-21T12:31:34;30.75;;;20.45;;
23680;SDS011;62915;50.832;4.462;2023-11-21T12:34:00;29.08;;;20.17;;
23680;SDS011;62915;50.832;4.462;2023-11-21T12:36:26;28.88;;;20.58;;
23680;SDS011;62915;50.832;4.462;2023-11-21T12:38:54;31.05;;;21.02;;
23680;SDS011;62915;50.832;4.462;2023-11-21T12:41:19;29.15;;;21.58;;
23680;SDS011;62915;50.832;4.462;2023-11-21T12:43:46;25.17;;;19.23;;
23680;SDS011;62915;50.832;4.462;2023-11-21T12:46:13;22.70;;;18.30;;
23680;SDS011;62915;50.832;4.462;2023-11-21T12:48:43;23.73;;;17.52;;
23680;SDS011;62915;50.832;4.462;2023-11-21T12:51:12;23.95;;;18.77;;
23680;SDS011;62915;50.832;4.462;2023-11-21T12:53:41;27.77;;;18.48;;
23680;SDS011;62915;50.832;4.462;2023-11-21T12:56:10;24.33;;;16.77;;
23680;SDS011;62915;50.832;4.462;2023-11-21T12:58:37;20.98;;;16.08;;
23680;SDS011;62915;50.832;4.462;2023-11-21T13:01:07;23.35;;;14.85;;
23680;SDS011;62915;50.832;4.462;2023-11-21T13:03:40;22.52;;;15.20;;
23680;SDS011;62915;50.832;4.462;2023-11-21T13:06:07;22.75;;;15.45;;
23680;SDS011;62915;50.832;4.462;2023-11-21T13:08:33;20.38;;;14.77;;
23680;SDS011;62915;50.832;4.462;2023-11-21T13:11:00;18.60;;;12.93;;
23680;SDS011;62915;50.832;4.462;2023-11-21T13:13:27;19.10;;;14.57;;
23680;SDS011;62915;50.832;4.462;2023-11-21T13:15:55;22.60;;;14.10;;
23680;SDS011;62915;50.832;4.462;2023-11-21T13:18:25;21.98;;;15.05;;
23680;SDS011;62915;50.832;4.462;2023-11-21T13:20:56;18.17;;;13.90;;
23680;SDS011;62915;50.832;4.462;2023-11-21T13:23:24;17.45;;;14.80;;
23680;SDS011;62915;50.832;4.462;2023-11-21T13:25:50;15.65;;;13.75;;
23680;SDS011;62915;50.832;4.462;2023-11-21T13:28:17;18.60;;;12.90;;
23680;SDS011;62915;50.832;4.462;2023-11-21T13:30:46;15.00;;;12.27;;
23680;SDS011;62915;50.832;4.462;2023-11-21T13:33:12;16.23;;;13.05;;
23680;SDS011;62915;50.832;4.462;2023-11-21T13:35:42;16.23;;;12.38;;
23680;SDS011;62915;50.832;4.462;2023-11-21T13:38:16;14.95;;;13.43;;
23680;SDS011;62915;50.832;4.462;2023-11-21T13:40:52;16.27;;;13.23;;
23680;SDS011;62915;50.832;4.462;2023-11-21T13:43:20;14.68;;;11.57;;
23680;SDS011;62915;50.832;4.462;2023-11-21T13:45:49;18.00;;;11.43;;
23680;SDS011;62915;50.832;4.462;2023-11-21T13:48:23;16.73;;;11.27;;
23680;SDS011;62915;50.832;4.462;2023-11-21T13:51:11;17.00;;;11.68;;
23680;SDS011;62915;50.832;4.462;2023-11-21T13:53:43;13.07;;;10.73;;
23680;SDS011;62915;50.832;4.462;2023-11-21T13:56:14;13.23;;;10.85;;
23680;SDS011;62915;50.832;4.462;2023-11-21T13:58:44;13.75;;;10.35;;
23680;SDS011;62915;50.832;4.462;2023-11-21T14:01:17;16.17;;;10.63;;
23680;SDS011;62915;50.832;4.462;2023-11-21T14:03:48;16.38;;;9.93;;
23680;SDS011;62915;50.832;4.462;2023-11-21T14:06:21;11.02;;;8.93;;
23680;SDS011;62915;50.832;4.462;2023-11-21T14:08:52;12.40;;;7.60;;
23680;SDS011;62915;50.832;4.462;2023-11-21T14:11:21;10.20;;;7.38;;
23680;SDS011;62915;50.832;4.462;2023-11-21T14:13:47;13.23;;;7.03;;
23680;SDS011;62915;50.832;4.462;2023-11-21T14:16:14;10.73;;;7.47;;
23680;SDS011;62915;50.832;4.462;2023-11-21T14:18:42;13.70;;;7.07;;
23680;SDS011;62915;50.832;4.462;2023-11-21T14:21:20;12.25;;;7.50;;
23680;SDS011;62915;50.832;4.462;2023-11-21T14:23:46;9.20;;;6.63;;
23680;SDS011;62915;50.832;4.462;2023-11-21T14:26:13;9.75;;;5.93;;
23680;SDS011;62915;50.832;4.462;2023-11-21T14:28:40;8.50;;;6.43;;
23680;SDS011;62915;50.832;4.462;2023-11-21T14:31:07;6.95;;;5.65;;
23680;SDS011;62915;50.832;4.462;2023-11-21T14:33:33;10.20;;;5.93;;
23680;SDS011;62915;50.832;4.462;2023-11-21T14:35:59;5.95;;;5.05;;
23680;SDS011;62915;50.832;4.462;2023-11-21T14:38:25;8.15;;;5.60;;
23680;SDS011;62915;50.832;4.462;2023-11-21T14:40:51;7.70;;;5.28;;
23680;SDS011;62915;50.832;4.462;2023-11-21T14:43:17;8.23;;;4.75;;
23680;SDS011;62915;50.832;4.462;2023-11-21T14:45:44;7.47;;;5.07;;
23680;SDS011;62915;50.832;4.462;2023-11-21T14:48:09;10.20;;;5.63;;
23680;SDS011;62915;50.832;4.462;2023-11-21T14:50:41;7.50;;;5.45;;
23680;SDS011;62915;50.832;4.462;2023-11-21T14:53:08;5.97;;;4.68;;
23680;SDS011;62915;50.832;4.462;2023-11-21T14:55:37;9.95;;;5.75;;
23680;SDS011;62915;50.832;4.462;2023-11-21T14:58:20;7.45;;;5.55;;
23680;SDS011;62915;50.832;4.462;2023-11-21T15:00:56;7.38;;;5.32;;
23680;SDS011;62915;50.832;4.462;2023-11-21T15:03:26;11.25;;;5.65;;
23680;SDS011;62915;50.832;4.462;2023-11-21T15:05:56;6.80;;;5.30;;
23680;SDS011;62915;50.832;4.462;2023-11-21T15:08:43;7.25;;;6.10;;
23680;SDS011;62915;50.832;4.462;2023-11-21T15:11:10;11.15;;;7.47;;
23680;SDS011;62915;50.832;4.462;2023-11-21T15:13:40;11.05;;;6.85;;
23680;SDS011;62915;50.832;4.462;2023-11-21T15:16:07;9.27;;;6.78;;
23680;SDS011;62915;50.832;4.462;2023-11-21T15:18:36;10.15;;;7.38;;
23680;SDS011;62915;50.832;4.462;2023-11-21T15:21:02;8.63;;;6.88;;
23680;SDS011;62915;50.832;4.462;2023-11-21T15:23:30;10.00;;;7.47;;
23680;SDS011;62915;50.832;4.462;2023-11-21T15:26:00;13.75;;;7.50;;
23680;SDS011;62915;50.832;4.462;2023-11-21T15:28:27;12.93;;;7.47;;
23680;SDS011;62915;50.832;4.462;2023-11-21T15:30:54;9.88;;;7.60;;
23680;SDS011;62915;50.832;4.462;2023-11-21T15:33:19;11.02;;;7.57;;
23680;SDS011;62915;50.832;4.462;2023-11-21T15:35:45;13.38;;;8.35;;
23680;SDS011;62915;50.832;4.462;2023-11-21T15:38:11;15.93;;;8.30;;
23680;SDS011;62915;50.832;4.462;2023-11-21T15:40:38;10.75;;;7.45;;
23680;SDS011;62915;50.832;4.462;2023-11-21T15:43:04;12.80;;;8.07;;
23680;SDS011;62915;50.832;4.462;2023-11-21T15:45:31;11.68;;;7.82;;
23680;SDS011;62915;50.832;4.462;2023-11-21T15:47:57;10.35;;;8.15;;
23680;SDS011;62915;50.832;4.462;2023-11-21T15:50:24;9.25;;;7.47;;
23680;SDS011;62915;50.832;4.462;2023-11-21T15:52:50;10.10;;;8.27;;
23680;SDS011;62915;50.832;4.462;2023-11-21T15:55:16;14.52;;;8.95;;
23680;SDS011;62915;50.832;4.462;2023-11-21T15:57:42;10.15;;;7.63;;
23680;SDS011;62915;50.832;4.462;2023-11-21T16:00:08;9.85;;;7.65;;
23680;SDS011;62915;50.832;4.462;2023-11-21T16:02:41;12.05;;;8.82;;
23680;SDS011;62915;50.832;4.462;2023-11-21T16:05:08;11.10;;;7.82;;
23680;SDS011;62915;50.832;4.462;2023-11-21T16:07:35;12.02;;;8.38;;
23680;SDS011;62915;50.832;4.462;2023-11-21T16:10:01;10.73;;;8.68;;
23680;SDS011;62915;50.832;4.462;2023-11-21T16:12:28;10.05;;;8.32;;
23680;SDS011;62915;50.832;4.462;2023-11-21T16:14:54;13.38;;;8.80;;
23680;SDS011;62915;50.832;4.462;2023-11-21T16:17:20;12.60;;;9.18;;
23680;SDS011;62915;50.832;4.462;2023-11-21T16:19:48;14.07;;;10.18;;
23680;SDS011;62915;50.832;4.462;2023-11-21T16:22:14;18.42;;;10.75;;
23680;SDS011;62915;50.832;4.462;2023-11-21T16:24:40;14.43;;;10.52;;
23680;SDS011;62915;50.832;4.462;2023-11-21T16:27:06;14.73;;;10.77;;
23680;SDS011;62915;50.832;4.462;2023-11-21T16:29:35;15.23;;;10.90;;
23680;SDS011;62915;50.832;4.462;2023-11-21T16:32:01;17.23;;;11.77;;
23680;SDS011;62915;50.832;4.462;2023-11-21T16:34:28;15.15;;;11.20;;
23680;SDS011;62915;50.832;4.462;2023-11-21T16:36:54;15.13;;;11.00;;
23680;SDS011;62915;50.832;4.462;2023-11-21T16:39:21;16.85;;;11.07;;
23680;SDS011;62915;50.832;4.462;2023-11-21T16:41:47;19.75;;;11.82;;
23680;SDS011;62915;50.832;4.462;2023-11-21T16:44:14;20.92;;;13.15;;
23680;SDS011;62915;50.832;4.462;2023-11-21T16:46:49;17.85;;;11.85;;
23680;SDS011;62915;50.832;4.462;2023-11-21T16:49:18;18.95;;;12.82;;
23680;SDS011;62915;50.832;4.462;2023-11-21T16:51:44;18.85;;;12.35;;
23680;SDS011;62915;50.832;4.462;2023-11-21T16:54:11;18.83;;;12.35;;
23680;SDS011;62915;50.832;4.462;2023-11-21T16:56:38;17.95;;;12.00;;
23680;SDS011;62915;50.832;4.462;2023-11-21T16:59:04;21.73;;;12.07;;
23680;SDS011;62915;50.832;4.462;2023-11-21T17:01:29;17.08;;;11.93;;
23680;SDS011;62915;50.832;4.462;2023-11-21T17:03:56;17.38;;;12.32;;
23680;SDS011;62915;50.832;4.462;2023-11-21T17:06:23;18.55;;;11.55;;
23680;SDS011;62915;50.832;4.462;2023-11-21T17:08:51;22.02;;;12.13;;
23680;SDS011;62915;50.832;4.462;2023-11-21T17:11:20;19.63;;;12.80;;
23680;SDS011;62915;50.832;4.462;2023-11-21T17:13:46;18.00;;;12.80;;
23680;SDS011;62915;50.832;4.462;2023-11-21T17:16:12;17.48;;;12.57;;
23680;SDS011;62915;50.832;4.462;2023-11-21T17:18:38;17.77;;;12.55;;
23680;SDS011;62915;50.832;4.462;2023-11-21T17:21:04;17.88;;;12.80;;
23680;SDS011;62915;50.832;4.462;2023-11-21T17:23:30;19.00;;;13.07;;
23680;SDS011;62915;50.832;4.462;2023-11-21T17:25:56;19.17;;;13.07;;
23680;SDS011;62915;50.832;4.462;2023-11-21T17:28:22;19.77;;;13.88;;
23680;SDS011;62915;50.832;4.462;2023-11-21T17:30:48;19.40;;;12.70;;
23680;SDS011;62915;50.832;4.462;2023-11-21T17:33:14;18.98;;;12.60;;
23680;SDS011;62915;50.832;4.462;2023-11-21T17:35:40;17.10;;;12.57;;
23680;SDS011;62915;50.832;4.462;2023-11-21T17:38:07;18.45;;;12.07;;
23680;SDS011;62915;50.832;4.462;2023-11-21T17:40:33;20.92;;;12.27;;
23680;SDS011;62915;50.832;4.462;2023-11-21T17:43:00;19.15;;;12.30;;
23680;SDS011;62915;50.832;4.462;2023-11-21T17:45:26;19.13;;;13.45;;
23680;SDS011;62915;50.832;4.462;2023-11-21T17:47:53;21.15;;;13.82;;
23680;SDS011;62915;50.832;4.462;2023-11-21T17:50:18;22.25;;;14.63;;
23680;SDS011;62915;50.832;4.462;2023-11-21T17:52:44;24.35;;;14.93;;
23680;SDS011;62915;50.832;4.462;2023-11-21T17:55:10;21.52;;;13.75;;
23680;SDS011;62915;50.832;4.462;2023-11-21T17:57:36;22.35;;;15.55;;
23680;SDS011;62915;50.832;4.462;2023-11-21T18:00:02;21.88;;;14.90;;
23680;SDS011;62915;50.832;4.462;2023-11-21T18:02:31;26.90;;;15.90;;
23680;SDS011;62915;50.832;4.462;2023-11-21T18:04:58;21.10;;;14.38;;
23680;SDS011;62915;50.832;4.462;2023-11-21T18:07:30;23.48;;;15.48;;
23680;SDS011;62915;50.832;4.462;2023-11-21T18:09:56;23.88;;;14.27;;
23680;SDS011;62915;50.832;4.462;2023-11-21T18:12:23;23.42;;;15.27;;
23680;SDS011;62915;50.832;4.462;2023-11-21T18:14:49;22.17;;;15.60;;
23680;SDS011;62915;50.832;4.462;2023-11-21T18:17:16;25.10;;;15.00;;
23680;SDS011;62915;50.832;4.462;2023-11-21T18:19:46;21.27;;;14.88;;
23680;SDS011;62915;50.832;4.462;2023-11-21T18:22:13;25.17;;;16.33;;
23680;SDS011;62915;50.832;4.462;2023-11-21T18:24:38;25.25;;;17.67;;
23680;SDS011;62915;50.832;4.462;2023-11-21T18:27:04;25.15;;;16.73;;
23680;SDS011;62915;50.832;4.462;2023-11-21T18:29:31;30.50;;;18.58;;
23680;SDS011;62915;50.832;4.462;2023-11-21T18:31:57;27.60;;;18.30;;
23680;SDS011;62915;50.832;4.462;2023-11-21T18:34:22;28.85;;;19.25;;
23680;SDS011;62915;50.832;4.462;2023-11-21T18:36:49;28.85;;;19.92;;
23680;SDS011;62915;50.832;4.462;2023-11-21T18:39:15;31.85;;;20.63;;
23680;SDS011;62915;50.832;4.462;2023-11-21T18:41:42;32.92;;;20.63;;
23680;SDS011;62915;50.832;4.462;2023-11-21T18:44:09;31.20;;;20.02;;
23680;SDS011;62915;50.832;4.462;2023-11-21T18:46:39;30.77;;;20.02;;
23680;SDS011;62915;50.832;4.462;2023-11-21T18:49:05;30.88;;;20.27;;
23680;SDS011;62915;50.832;4.462;2023-11-21T18:51:31;33.42;;;19.42;;
23680;SDS011;62915;50.832;4.462;2023-11-21T18:53:59;27.13;;;18.35;;
23680;SDS011;62915;50.832;4.462;2023-11-21T18:56:24;29.55;;;20.30;;
23680;SDS011;62915;50.832;4.462;2023-11-21T18:58:51;24.45;;;18.40;;
23680;SDS011;62915;50.832;4.462;2023-11-21T19:01:27;22.90;;;16.02;;
23680;SDS011;62915;50.832;4.462;2023-11-21T19:03:55;21.15;;;14.25;;
23680;SDS011;62915;50.832;4.462;2023-11-21T19:06:23;18.50;;;12.77;;
23680;SDS011;62915;50.832;4.462;2023-11-21T19:08:50;18.42;;;13.07;;
23680;SDS011;62915;50.832;4.462;2023-11-21T19:11:16;18.25;;;12.60;;
23680;SDS011;62915;50.832;4.462;2023-11-21T19:13:42;19.25;;;13.10;;
23680;SDS011;62915;50.832;4.462;2023-11-21T19:16:08;15.77;;;11.88;;
23680;SDS011;62915;50.832;4.462;2023-11-21T19:18:35;17.75;;;11.52;;
23680;SDS011;62915;50.832;4.462;2023-11-21T19:21:01;20.17;;;13.52;;
23680;SDS011;62915;50.832;4.462;2023-11-21T19:23:28;21.35;;;13.60;;
23680;SDS011;62915;50.832;4.462;2023-11-21T19:25:54;26.60;;;16.67;;
23680;SDS011;62915;50.832;4.462;2023-11-21T19:28:19;26.63;;;16.90;;
23680;SDS011;62915;50.832;4.462;2023-11-21T19:30:45;27.83;;;16.65;;
23680;SDS011;62915;50.832;4.462;2023-11-21T19:33:11;28.98;;;16.88;;
23680;SDS011;62915;50.832;4.462;2023-11-21T19:35:37;31.80;;;16.85;;
23680;SDS011;62915;50.832;4.462;2023-11-21T19:38:07;32.22;;;16.92;;
23680;SDS011;62915;50.832;4.462;2023-11-21T19:40:36;26.70;;;16.00;;
23680;SDS011;62915;50.832;4.462;2023-11-21T19:43:02;24.13;;;15.38;;
23680;SDS011;62915;50.832;4.462;2023-11-21T19:45:28;28.63;;;17.20;;
23680;SDS011;62915;50.832;4.462;2023-11-21T19:47:59;30.52;;;16.70;;
23680;SDS011;62915;50.832;4.462;2023-11-21T19:50:25;28.25;;;16.67;;
23680;SDS011;62915;50.832;4.462;2023-11-21T19:52:52;27.65;;;16.98;;
23680;SDS011;62915;50.832;4.462;2023-11-21T19:55:17;31.48;;;17.88;;
23680;SDS011;62915;50.832;4.462;2023-11-21T19:57:43;33.03;;;19.42;;
23680;SDS011;62915;50.832;4.462;2023-11-21T20:00:09;30.05;;;18.65;;
23680;SDS011;62915;50.832;4.462;2023-11-21T20:02:40;33.38;;;18.13;;
23680;SDS011;62915;50.832;4.462;2023-11-21T20:05:06;31.65;;;17.60;;
23680;SDS011;62915;50.832;4.462;2023-11-21T20:07:33;31.02;;;18.13;;
23680;SDS011;62915;50.832;4.462;2023-11-21T20:09:59;29.05;;;16.92;;
23680;SDS011;62915;50.832;4.462;2023-11-21T20:12:25;35.30;;;18.80;;
23680;SDS011;62915;50.832;4.462;2023-11-21T20:14:52;31.73;;;17.80;;
23680;SDS011;62915;50.832;4.462;2023-11-21T20:17:18;27.85;;;17.13;;
23680;SDS011;62915;50.832;4.462;2023-11-21T20:19:44;30.45;;;17.73;;
23680;SDS011;62915;50.832;4.462;2023-11-21T20:22:10;31.55;;;19.20;;
23680;SDS011;62915;50.832;4.462;2023-11-21T20:24:37;30.13;;;18.58;;
23680;SDS011;62915;50.832;4.462;2023-11-21T20:27:03;29.17;;;19.23;;
23680;SDS011;62915;50.832;4.462;2023-11-21T20:29:30;30.08;;;19.02;;
23680;SDS011;62915;50.832;4.462;2023-11-21T20:31:57;28.10;;;18.27;;
23680;SDS011;62915;50.832;4.462;2023-11-21T20:34:23;34.13;;;20.25;;
23680;SDS011;62915;50.832;4.462;2023-11-21T20:36:49;27.23;;;18.15;;
23680;SDS011;62915;50.832;4.462;2023-11-21T20:39:16;26.85;;;19.80;;
23680;SDS011;62915;50.832;4.462;2023-11-21T20:41:42;29.17;;;19.98;;
23680;SDS011;62915;50.832;4.462;2023-11-21T20:44:11;29.33;;;19.27;;
23680;SDS011;62915;50.832;4.462;2023-11-21T20:46:41;32.80;;;21.58;;
23680;SDS011;62915;50.832;4.462;2023-11-21T20:49:11;30.92;;;20.27;;
23680;SDS011;62915;50.832;4.462;2023-11-21T20:51:38;31.00;;;19.85;;
23680;SDS011;62915;50.832;4.462;2023-11-21T20:54:05;25.15;;;18.38;;
23680;SDS011;62915;50.832;4.462;2023-11-21T20:56:31;26.65;;;18.42;;
23680;SDS011;62915;50.832;4.462;2023-11-21T20:58:58;23.73;;;18.92;;
23680;SDS011;62915;50.832;4.462;2023-11-21T21:01:34;25.15;;;18.92;;
23680;SDS011;62915;50.832;4.462;2023-11-21T21:04:01;22.98;;;17.73;;
23680;SDS011;62915;50.832;4.462;2023-11-21T21:06:27;24.75;;;18.42;;
23680;SDS011;62915;50.832;4.462;2023-11-21T21:08:53;24.80;;;18.02;;
23680;SDS011;62915;50.832;4.462;2023-11-21T21:11:20;22.75;;;16.85;;
23680;SDS011;62915;50.832;4.462;2023-11-21T21:13:46;22.20;;;17.58;;
23680;SDS011;62915;50.832;4.462;2023-11-21T21:16:12;21.73;;;17.63;;
23680;SDS011;62915;50.832;4.462;2023-11-21T21:18:39;22.65;;;17.85;;
23680;SDS011;62915;50.832;4.462;2023-11-21T21:21:05;21.67;;;16.92;;
23680;SDS011;62915;50.832;4.462;2023-11-21T21:23:31;23.38;;;17.50;;
23680;SDS011;62915;50.832;4.462;2023-11-21T21:25:57;24.55;;;18.52;;
23680;SDS011;62915;50.832;4.462;2023-11-21T21:28:23;24.50;;;18.52;;
23680;SDS011;62915;50.832;4.462;2023-11-21T21:30:48;23.25;;;18.33;;
23680;SDS011;62915;50.832;4.462;2023-11-21T21:33:14;26.23;;;18.63;;
23680;SDS011;62915;50.832;4.462;2023-11-21T21:35:41;25.83;;;19.48;;
23680;SDS011;62915;50.832;4.462;2023-11-21T21:38:07;24.88;;;18.92;;
23680;SDS011;62915;50.832;4.462;2023-11-21T21:40:32;26.95;;;18.60;;
23680;SDS011;62915;50.832;4.462;2023-11-21T21:42:59;25.45;;;19.95;;
23680;SDS011;62915;50.832;4.462;2023-11-21T21:45:26;25.05;;;19.60;;
23680;SDS011;62915;50.832;4.462;2023-11-21T21:47:52;25.80;;;19.52;;
23680;SDS011;62915;50.832;4.462;2023-11-21T21:50:18;24.30;;;19.08;;
23680;SDS011;62915;50.832;4.462;2023-11-21T21:52:44;28.05;;;21.35;;
23680;SDS011;62915;50.832;4.462;2023-11-21T21:55:12;26.20;;;20.10;;
23680;SDS011;62915;50.832;4.462;2023-11-21T21:57:41;24.92;;;19.90;;
23680;SDS011;62915;50.832;4.462;2023-11-21T22:00:08;29.70;;;19.75;;
23680;SDS011;62915;50.832;4.462;2023-11-21T22:02:38;27.48;;;21.17;;
23680;SDS011;62915;50.832;4.462;2023-11-21T22:05:08;28.48;;;21.85;;
23680;SDS011;62915;50.832;4.462;2023-11-21T22:07:38;27.25;;;20.45;;
23680;SDS011;62915;50.832;4.462;2023-11-21T22:10:05;30.73;;;21.27;;
23680;SDS011;62915;50.832;4.462;2023-11-21T22:12:33;28.25;;;21.73;;
23680;SDS011;62915;50.832;4.462;2023-11-21T22:15:02;28.20;;;20.73;;
23680;SDS011;62915;50.832;4.462;2023-11-21T22:17:29;29.67;;;22.33;;
23680;SDS011;62915;50.832;4.462;2023-11-21T22:19:55;28.00;;;21.40;;
23680;SDS011;62915;50.832;4.462;2023-11-21T22:22:22;27.20;;;21.38;;
23680;SDS011;62915;50.832;4.462;2023-11-21T22:24:49;28.98;;;21.02;;
23680;SDS011;62915;50.832;4.462;2023-11-21T22:27:17;28.75;;;22.25;;
23680;SDS011;62915;50.832;4.462;2023-11-21T22:29:43;28.90;;;22.00;;
23680;SDS011;62915;50.832;4.462;2023-11-21T22:32:09;30.15;;;21.55;;
23680;SDS011;62915;50.832;4.462;2023-11-21T22:34:35;29.90;;;21.20;;
23680;SDS011;62915;50.832;4.462;2023-11-21T22:37:01;31.13;;;22.65;;
23680;SDS011;62915;50.832;4.462;2023-11-21T22:39:27;27.17;;;20.27;;
23680;SDS011;62915;50.832;4.462;2023-11-21T22:41:53;29.95;;;21.50;;
23680;SDS011;62915;50.832;4.462;2023-11-21T22:44:20;31.38;;;21.35;;
23680;SDS011;62915;50.832;4.462;2023-11-21T22:46:46;31.00;;;21.40;;
23680;SDS011;62915;50.832;4.462;2023-11-21T22:49:12;28.33;;;21.17;;
23680;SDS011;62915;50.832;4.462;2023-11-21T22:51:38;30.63;;;21.42;;
23680;SDS011;62915;50.832;4.462;2023-11-21T22:54:05;34.33;;;23.10;;